Thornburg, Arkansas
Current Conditions -  °F | °C
As of 2:53 PM on Tuesday 27 Jan 2015 (Local Time) from KRUE Reporting Station
Clear Clear  
Wind Chill: 68°   Ceiling: Unl
Heat Index: 68°   Visibility: 10mi
Dew Point: 31°   Wind: 5mph
Humidity: 25%   Direction: 260°W
Pressure: 30.1"   Gusts: NA
Location:  34.9067°N, 93.0072°W
Report Text: KRUE 272053Z AUTO 26004KT 10SM CLR 20/M01 A3010 RMK AO2 SLP188 T02001006 56017
Loading
Personal Weather Stations






























Interactive Weather Map New forecast layout! Learn more

10-Day Weather Forecast

Advertisements
Track Severe Weather on mobile